sensor_id;sensor_type;location;lat;lon;timestamp;P1;durP1;ratioP1;P2;durP2;ratioP2
19973;SDS011;10148;47.694;9.442;2022-08-19T00:01:38;6.22;;;5.63;;
19973;SDS011;10148;47.694;9.442;2022-08-19T00:04:06;7.03;;;5.53;;
19973;SDS011;10148;47.694;9.442;2022-08-19T00:06:37;6.78;;;5.50;;
19973;SDS011;10148;47.694;9.442;2022-08-19T00:09:05;7.28;;;5.53;;
19973;SDS011;10148;47.694;9.442;2022-08-19T00:11:32;7.93;;;6.38;;
19973;SDS011;10148;47.694;9.442;2022-08-19T00:13:59;8.50;;;7.47;;
19973;SDS011;10148;47.694;9.442;2022-08-19T00:16:25;11.15;;;7.68;;
19973;SDS011;10148;47.694;9.442;2022-08-19T00:18:52;10.93;;;8.95;;
19973;SDS011;10148;47.694;9.442;2022-08-19T00:21:20;9.40;;;8.20;;
19973;SDS011;10148;47.694;9.442;2022-08-19T00:23:45;10.07;;;8.23;;
19973;SDS011;10148;47.694;9.442;2022-08-19T00:26:11;10.35;;;8.43;;
19973;SDS011;10148;47.694;9.442;2022-08-19T00:28:37;9.77;;;8.65;;
19973;SDS011;10148;47.694;9.442;2022-08-19T00:31:04;10.13;;;8.77;;
19973;SDS011;10148;47.694;9.442;2022-08-19T00:33:31;9.23;;;7.78;;
19973;SDS011;10148;47.694;9.442;2022-08-19T00:35:58;9.60;;;8.23;;
19973;SDS011;10148;47.694;9.442;2022-08-19T00:38:24;10.23;;;8.38;;
19973;SDS011;10148;47.694;9.442;2022-08-19T00:40:50;11.13;;;8.70;;
19973;SDS011;10148;47.694;9.442;2022-08-19T00:43:18;8.75;;;7.57;;
19973;SDS011;10148;47.694;9.442;2022-08-19T00:45:46;10.10;;;8.63;;
19973;SDS011;10148;47.694;9.442;2022-08-19T00:48:12;8.93;;;8.02;;
19973;SDS011;10148;47.694;9.442;2022-08-19T00:50:39;13.25;;;8.43;;
19973;SDS011;10148;47.694;9.442;2022-08-19T00:53:07;10.02;;;8.68;;
19973;SDS011;10148;47.694;9.442;2022-08-19T00:55:39;9.48;;;8.50;;
19973;SDS011;10148;47.694;9.442;2022-08-19T00:58:08;11.25;;;8.65;;
19973;SDS011;10148;47.694;9.442;2022-08-19T01:00:36;10.38;;;9.07;;
19973;SDS011;10148;47.694;9.442;2022-08-19T01:03:04;10.88;;;9.32;;
19973;SDS011;10148;47.694;9.442;2022-08-19T01:05:42;11.07;;;9.07;;
19973;SDS011;10148;47.694;9.442;2022-08-19T01:08:09;12.18;;;9.07;;
19973;SDS011;10148;47.694;9.442;2022-08-19T01:10:39;11.15;;;8.90;;
19973;SDS011;10148;47.694;9.442;2022-08-19T01:13:08;9.98;;;8.93;;
19973;SDS011;10148;47.694;9.442;2022-08-19T01:15:38;9.95;;;8.95;;
19973;SDS011;10148;47.694;9.442;2022-08-19T01:18:08;10.73;;;9.48;;
19973;SDS011;10148;47.694;9.442;2022-08-19T01:20:36;11.65;;;9.77;;
19973;SDS011;10148;47.694;9.442;2022-08-19T01:23:02;11.07;;;9.93;;
19973;SDS011;10148;47.694;9.442;2022-08-19T01:25:34;11.57;;;9.48;;
19973;SDS011;10148;47.694;9.442;2022-08-19T01:28:14;11.20;;;9.48;;
19973;SDS011;10148;47.694;9.442;2022-08-19T01:30:42;12.20;;;10.85;;
19973;SDS011;10148;47.694;9.442;2022-08-19T01:33:09;12.73;;;11.07;;
19973;SDS011;10148;47.694;9.442;2022-08-19T01:35:35;14.48;;;11.35;;
19973;SDS011;10148;47.694;9.442;2022-08-19T01:38:02;14.65;;;11.38;;
19973;SDS011;10148;47.694;9.442;2022-08-19T01:40:34;12.10;;;10.80;;
19973;SDS011;10148;47.694;9.442;2022-08-19T01:43:02;12.95;;;11.55;;
19973;SDS011;10148;47.694;9.442;2022-08-19T01:45:29;12.73;;;10.75;;
19973;SDS011;10148;47.694;9.442;2022-08-19T01:47:56;13.68;;;11.57;;
19973;SDS011;10148;47.694;9.442;2022-08-19T01:50:23;12.82;;;11.10;;
19973;SDS011;10148;47.694;9.442;2022-08-19T01:52:49;13.98;;;12.23;;
19973;SDS011;10148;47.694;9.442;2022-08-19T01:55:15;12.90;;;11.52;;
19973;SDS011;10148;47.694;9.442;2022-08-19T01:57:47;15.02;;;11.95;;
19973;SDS011;10148;47.694;9.442;2022-08-19T02:00:15;14.23;;;11.93;;
19973;SDS011;10148;47.694;9.442;2022-08-19T02:02:43;15.25;;;12.27;;
19973;SDS011;10148;47.694;9.442;2022-08-19T02:05:08;12.85;;;11.32;;
19973;SDS011;10148;47.694;9.442;2022-08-19T02:07:35;13.75;;;11.65;;
19973;SDS011;10148;47.694;9.442;2022-08-19T02:10:05;16.13;;;13.05;;
19973;SDS011;10148;47.694;9.442;2022-08-19T02:12:32;14.13;;;12.32;;
19973;SDS011;10148;47.694;9.442;2022-08-19T02:14:58;16.55;;;12.57;;
19973;SDS011;10148;47.694;9.442;2022-08-19T02:17:25;15.75;;;13.02;;
19973;SDS011;10148;47.694;9.442;2022-08-19T02:19:53;13.77;;;11.13;;
19973;SDS011;10148;47.694;9.442;2022-08-19T02:22:19;16.80;;;12.20;;
19973;SDS011;10148;47.694;9.442;2022-08-19T02:24:45;16.13;;;12.88;;
19973;SDS011;10148;47.694;9.442;2022-08-19T02:27:11;15.40;;;12.88;;
19973;SDS011;10148;47.694;9.442;2022-08-19T02:29:36;15.65;;;12.48;;
19973;SDS011;10148;47.694;9.442;2022-08-19T02:32:02;14.80;;;11.90;;
19973;SDS011;10148;47.694;9.442;2022-08-19T02:34:29;14.35;;;12.60;;
19973;SDS011;10148;47.694;9.442;2022-08-19T02:36:54;14.40;;;11.65;;
19973;SDS011;10148;47.694;9.442;2022-08-19T02:39:20;12.23;;;10.40;;
19973;SDS011;10148;47.694;9.442;2022-08-19T02:41:45;11.18;;;9.68;;
19973;SDS011;10148;47.694;9.442;2022-08-19T02:44:11;13.10;;;10.63;;
19973;SDS011;10148;47.694;9.442;2022-08-19T02:46:37;12.27;;;10.23;;
19973;SDS011;10148;47.694;9.442;2022-08-19T02:49:04;10.15;;;8.07;;
19973;SDS011;10148;47.694;9.442;2022-08-19T02:51:32;12.13;;;9.65;;
19973;SDS011;10148;47.694;9.442;2022-08-19T02:54:03;12.55;;;9.40;;
19973;SDS011;10148;47.694;9.442;2022-08-19T02:56:29;13.30;;;10.45;;
19973;SDS011;10148;47.694;9.442;2022-08-19T02:58:55;14.10;;;11.40;;
19973;SDS011;10148;47.694;9.442;2022-08-19T03:01:31;11.70;;;10.32;;
19973;SDS011;10148;47.694;9.442;2022-08-19T03:03:58;10.75;;;8.77;;
19973;SDS011;10148;47.694;9.442;2022-08-19T03:06:25;12.82;;;9.80;;
19973;SDS011;10148;47.694;9.442;2022-08-19T03:08:52;9.43;;;8.25;;
19973;SDS011;10148;47.694;9.442;2022-08-19T03:11:19;13.55;;;9.93;;
19973;SDS011;10148;47.694;9.442;2022-08-19T03:13:47;11.88;;;9.30;;
19973;SDS011;10148;47.694;9.442;2022-08-19T03:16:14;12.70;;;9.70;;
19973;SDS011;10148;47.694;9.442;2022-08-19T03:18:40;13.80;;;10.70;;
19973;SDS011;10148;47.694;9.442;2022-08-19T03:21:07;11.48;;;9.95;;
19973;SDS011;10148;47.694;9.442;2022-08-19T03:23:33;13.80;;;10.05;;
19973;SDS011;10148;47.694;9.442;2022-08-19T03:26:02;12.10;;;9.48;;
19973;SDS011;10148;47.694;9.442;2022-08-19T03:28:29;12.18;;;9.80;;
19973;SDS011;10148;47.694;9.442;2022-08-19T03:30:59;13.13;;;10.05;;
19973;SDS011;10148;47.694;9.442;2022-08-19T03:33:27;12.55;;;9.20;;
19973;SDS011;10148;47.694;9.442;2022-08-19T03:36:07;14.25;;;9.60;;
19973;SDS011;10148;47.694;9.442;2022-08-19T03:38:36;13.13;;;9.70;;
19973;SDS011;10148;47.694;9.442;2022-08-19T03:41:08;11.70;;;8.48;;
19973;SDS011;10148;47.694;9.442;2022-08-19T03:43:36;12.00;;;9.85;;
19973;SDS011;10148;47.694;9.442;2022-08-19T03:46:06;10.32;;;8.23;;
19973;SDS011;10148;47.694;9.442;2022-08-19T03:48:34;11.02;;;8.38;;
19973;SDS011;10148;47.694;9.442;2022-08-19T03:51:01;11.50;;;8.88;;
19973;SDS011;10148;47.694;9.442;2022-08-19T03:53:27;14.00;;;9.75;;
19973;SDS011;10148;47.694;9.442;2022-08-19T03:55:54;11.93;;;9.40;;
19973;SDS011;10148;47.694;9.442;2022-08-19T03:58:21;12.60;;;10.05;;
19973;SDS011;10148;47.694;9.442;2022-08-19T04:00:47;11.43;;;9.40;;
19973;SDS011;10148;47.694;9.442;2022-08-19T04:03:13;12.73;;;9.55;;
19973;SDS011;10148;47.694;9.442;2022-08-19T04:05:39;16.02;;;9.45;;
19973;SDS011;10148;47.694;9.442;2022-08-19T04:08:05;11.82;;;9.38;;
19973;SDS011;10148;47.694;9.442;2022-08-19T04:10:31;12.80;;;9.45;;
19973;SDS011;10148;47.694;9.442;2022-08-19T04:13:01;14.48;;;10.27;;
19973;SDS011;10148;47.694;9.442;2022-08-19T04:15:29;12.43;;;9.50;;
19973;SDS011;10148;47.694;9.442;2022-08-19T04:17:56;12.57;;;9.73;;
19973;SDS011;10148;47.694;9.442;2022-08-19T04:20:21;14.70;;;11.05;;
19973;SDS011;10148;47.694;9.442;2022-08-19T04:22:47;16.52;;;10.38;;
19973;SDS011;10148;47.694;9.442;2022-08-19T04:25:12;15.10;;;10.43;;
19973;SDS011;10148;47.694;9.442;2022-08-19T04:27:38;14.48;;;10.65;;
19973;SDS011;10148;47.694;9.442;2022-08-19T04:30:03;17.10;;;12.23;;
19973;SDS011;10148;47.694;9.442;2022-08-19T04:32:29;17.60;;;12.07;;
19973;SDS011;10148;47.694;9.442;2022-08-19T04:34:56;18.67;;;12.80;;
19973;SDS011;10148;47.694;9.442;2022-08-19T04:37:23;18.00;;;12.73;;
19973;SDS011;10148;47.694;9.442;2022-08-19T04:39:51;15.80;;;11.43;;
19973;SDS011;10148;47.694;9.442;2022-08-19T04:42:52;16.10;;;11.93;;
19973;SDS011;10148;47.694;9.442;2022-08-19T04:45:18;16.48;;;12.13;;
19973;SDS011;10148;47.694;9.442;2022-08-19T04:47:44;17.75;;;12.43;;
19973;SDS011;10148;47.694;9.442;2022-08-19T04:50:10;18.60;;;12.60;;
19973;SDS011;10148;47.694;9.442;2022-08-19T04:52:37;20.65;;;12.77;;
19973;SDS011;10148;47.694;9.442;2022-08-19T04:55:07;18.45;;;13.48;;
19973;SDS011;10148;47.694;9.442;2022-08-19T04:57:33;19.35;;;12.73;;
19973;SDS011;10148;47.694;9.442;2022-08-19T04:59:59;16.52;;;12.43;;
19973;SDS011;10148;47.694;9.442;2022-08-19T05:02:24;20.13;;;13.13;;
19973;SDS011;10148;47.694;9.442;2022-08-19T05:04:55;21.38;;;13.32;;
19973;SDS011;10148;47.694;9.442;2022-08-19T05:07:22;18.92;;;13.77;;
19973;SDS011;10148;47.694;9.442;2022-08-19T05:09:47;21.17;;;14.63;;
19973;SDS011;10148;47.694;9.442;2022-08-19T05:12:13;20.58;;;14.38;;
19973;SDS011;10148;47.694;9.442;2022-08-19T05:14:38;23.50;;;15.20;;
19973;SDS011;10148;47.694;9.442;2022-08-19T05:17:04;21.10;;;14.10;;
19973;SDS011;10148;47.694;9.442;2022-08-19T05:19:29;18.65;;;13.07;;
19973;SDS011;10148;47.694;9.442;2022-08-19T05:22:13;22.02;;;14.43;;
19973;SDS011;10148;47.694;9.442;2022-08-19T05:24:58;21.48;;;14.55;;
19973;SDS011;10148;47.694;9.442;2022-08-19T05:27:23;22.02;;;14.95;;
19973;SDS011;10148;47.694;9.442;2022-08-19T05:29:49;20.02;;;14.52;;
19973;SDS011;10148;47.694;9.442;2022-08-19T05:32:15;23.25;;;15.65;;
19973;SDS011;10148;47.694;9.442;2022-08-19T05:34:40;26.05;;;15.00;;
19973;SDS011;10148;47.694;9.442;2022-08-19T05:37:06;20.98;;;15.00;;
19973;SDS011;10148;47.694;9.442;2022-08-19T05:39:34;23.10;;;15.40;;
19973;SDS011;10148;47.694;9.442;2022-08-19T05:42:02;21.30;;;14.98;;
19973;SDS011;10148;47.694;9.442;2022-08-19T05:44:31;23.77;;;15.85;;
19973;SDS011;10148;47.694;9.442;2022-08-19T05:46:59;22.33;;;15.45;;
19973;SDS011;10148;47.694;9.442;2022-08-19T05:49:27;24.48;;;15.57;;
19973;SDS011;10148;47.694;9.442;2022-08-19T05:51:53;21.63;;;14.50;;
19973;SDS011;10148;47.694;9.442;2022-08-19T05:54:20;22.80;;;15.30;;
19973;SDS011;10148;47.694;9.442;2022-08-19T05:56:47;22.30;;;15.10;;
19973;SDS011;10148;47.694;9.442;2022-08-19T05:59:15;21.63;;;14.30;;
19973;SDS011;10148;47.694;9.442;2022-08-19T06:01:43;21.50;;;14.93;;
19973;SDS011;10148;47.694;9.442;2022-08-19T06:04:10;22.65;;;15.55;;
19973;SDS011;10148;47.694;9.442;2022-08-19T06:06:38;20.85;;;15.15;;
19973;SDS011;10148;47.694;9.442;2022-08-19T06:09:05;23.17;;;16.05;;
19973;SDS011;10148;47.694;9.442;2022-08-19T06:11:37;23.13;;;15.20;;
19973;SDS011;10148;47.694;9.442;2022-08-19T06:14:06;21.38;;;14.43;;
19973;SDS011;10148;47.694;9.442;2022-08-19T06:16:38;22.42;;;16.05;;
19973;SDS011;10148;47.694;9.442;2022-08-19T06:19:06;26.27;;;16.27;;
19973;SDS011;10148;47.694;9.442;2022-08-19T06:21:35;25.30;;;16.20;;
19973;SDS011;10148;47.694;9.442;2022-08-19T06:24:02;24.77;;;16.08;;
19973;SDS011;10148;47.694;9.442;2022-08-19T06:26:29;25.65;;;17.20;;
19973;SDS011;10148;47.694;9.442;2022-08-19T06:28:55;26.27;;;17.33;;
19973;SDS011;10148;47.694;9.442;2022-08-19T06:31:22;23.73;;;16.25;;
19973;SDS011;10148;47.694;9.442;2022-08-19T06:33:50;24.73;;;16.73;;
19973;SDS011;10148;47.694;9.442;2022-08-19T06:36:20;24.17;;;17.20;;
19973;SDS011;10148;47.694;9.442;2022-08-19T06:38:49;27.05;;;18.00;;
19973;SDS011;10148;47.694;9.442;2022-08-19T06:41:14;29.17;;;20.75;;
19973;SDS011;10148;47.694;9.442;2022-08-19T06:43:40;27.38;;;17.27;;
19973;SDS011;10148;47.694;9.442;2022-08-19T06:46:09;28.13;;;17.85;;
19973;SDS011;10148;47.694;9.442;2022-08-19T06:48:39;27.27;;;18.95;;
19973;SDS011;10148;47.694;9.442;2022-08-19T06:51:05;25.35;;;18.10;;
19973;SDS011;10148;47.694;9.442;2022-08-19T06:53:31;26.65;;;18.20;;
19973;SDS011;10148;47.694;9.442;2022-08-19T06:55:57;27.73;;;17.65;;
19973;SDS011;10148;47.694;9.442;2022-08-19T06:58:27;29.15;;;18.63;;
19973;SDS011;10148;47.694;9.442;2022-08-19T07:00:56;28.90;;;18.40;;
19973;SDS011;10148;47.694;9.442;2022-08-19T07:03:26;32.25;;;20.95;;
19973;SDS011;10148;47.694;9.442;2022-08-19T07:05:54;28.77;;;18.77;;
19973;SDS011;10148;47.694;9.442;2022-08-19T07:08:19;30.85;;;19.63;;
19973;SDS011;10148;47.694;9.442;2022-08-19T07:10:45;31.02;;;20.25;;
19973;SDS011;10148;47.694;9.442;2022-08-19T07:13:11;34.78;;;19.38;;
19973;SDS011;10148;47.694;9.442;2022-08-19T07:15:37;33.55;;;20.95;;
19973;SDS011;10148;47.694;9.442;2022-08-19T07:18:02;32.97;;;19.80;;
19973;SDS011;10148;47.694;9.442;2022-08-19T07:20:28;30.90;;;19.50;;
19973;SDS011;10148;47.694;9.442;2022-08-19T07:22:53;36.47;;;21.10;;
19973;SDS011;10148;47.694;9.442;2022-08-19T07:25:19;36.85;;;20.98;;
19973;SDS011;10148;47.694;9.442;2022-08-19T07:27:45;33.03;;;20.27;;
19973;SDS011;10148;47.694;9.442;2022-08-19T07:30:13;31.90;;;19.73;;
19973;SDS011;10148;47.694;9.442;2022-08-19T07:32:39;36.42;;;21.02;;
19973;SDS011;10148;47.694;9.442;2022-08-19T07:35:06;37.40;;;21.67;;
19973;SDS011;10148;47.694;9.442;2022-08-19T07:37:32;34.60;;;20.65;;
19973;SDS011;10148;47.694;9.442;2022-08-19T07:39:58;36.55;;;21.50;;
19973;SDS011;10148;47.694;9.442;2022-08-19T07:42:25;73.70;;;51.00;;
19973;SDS011;10148;47.694;9.442;2022-08-19T07:44:51;34.10;;;21.17;;
19973;SDS011;10148;47.694;9.442;2022-08-19T07:47:17;33.05;;;21.27;;
19973;SDS011;10148;47.694;9.442;2022-08-19T07:49:43;30.15;;;19.48;;
19973;SDS011;10148;47.694;9.442;2022-08-19T07:52:09;33.95;;;20.42;;
19973;SDS011;10148;47.694;9.442;2022-08-19T07:54:35;32.58;;;20.23;;
19973;SDS011;10148;47.694;9.442;2022-08-19T07:57:03;30.77;;;19.50;;
19973;SDS011;10148;47.694;9.442;2022-08-19T07:59:28;33.53;;;19.80;;
19973;SDS011;10148;47.694;9.442;2022-08-19T08:01:54;34.50;;;21.02;;
19973;SDS011;10148;47.694;9.442;2022-08-19T08:04:20;37.88;;;21.65;;
19973;SDS011;10148;47.694;9.442;2022-08-19T08:07:05;34.92;;;21.85;;
19973;SDS011;10148;47.694;9.442;2022-08-19T08:09:51;31.58;;;20.20;;
19973;SDS011;10148;47.694;9.442;2022-08-19T08:12:19;32.20;;;19.98;;
19973;SDS011;10148;47.694;9.442;2022-08-19T08:14:53;31.63;;;20.85;;
19973;SDS011;10148;47.694;9.442;2022-08-19T08:17:21;34.08;;;21.55;;
19973;SDS011;10148;47.694;9.442;2022-08-19T08:19:49;32.55;;;19.90;;
19973;SDS011;10148;47.694;9.442;2022-08-19T08:22:17;30.08;;;20.33;;
19973;SDS011;10148;47.694;9.442;2022-08-19T08:25:04;35.28;;;20.20;;
19973;SDS011;10148;47.694;9.442;2022-08-19T08:27:31;36.05;;;21.40;;
19973;SDS011;10148;47.694;9.442;2022-08-19T08:30:02;35.22;;;21.67;;
19973;SDS011;10148;47.694;9.442;2022-08-19T08:32:29;33.05;;;20.55;;
19973;SDS011;10148;47.694;9.442;2022-08-19T08:34:55;37.38;;;22.67;;
19973;SDS011;10148;47.694;9.442;2022-08-19T08:37:20;33.63;;;20.42;;
19973;SDS011;10148;47.694;9.442;2022-08-19T08:39:47;34.17;;;21.15;;
19973;SDS011;10148;47.694;9.442;2022-08-19T08:47:39;35.00;;;22.67;;
19973;SDS011;10148;47.694;9.442;2022-08-19T08:50:10;32.70;;;21.05;;
19973;SDS011;10148;47.694;9.442;2022-08-19T08:52:45;32.90;;;21.35;;
19973;SDS011;10148;47.694;9.442;2022-08-19T08:55:14;32.03;;;21.15;;
19973;SDS011;10148;47.694;9.442;2022-08-19T09:03:27;38.72;;;23.80;;
19973;SDS011;10148;47.694;9.442;2022-08-19T09:08:29;36.78;;;22.90;;
19973;SDS011;10148;47.694;9.442;2022-08-19T09:11:05;36.95;;;22.63;;
19973;SDS011;10148;47.694;9.442;2022-08-19T09:13:38;34.45;;;22.80;;
19973;SDS011;10148;47.694;9.442;2022-08-19T09:16:08;34.25;;;22.20;;
19973;SDS011;10148;47.694;9.442;2022-08-19T09:18:44;35.63;;;22.38;;
19973;SDS011;10148;47.694;9.442;2022-08-19T09:21:14;35.85;;;21.98;;
19973;SDS011;10148;47.694;9.442;2022-08-19T09:23:40;35.28;;;22.23;;
19973;SDS011;10148;47.694;9.442;2022-08-19T09:26:08;36.30;;;23.52;;
19973;SDS011;10148;47.694;9.442;2022-08-19T09:28:40;34.60;;;22.15;;
19973;SDS011;10148;47.694;9.442;2022-08-19T09:31:09;37.80;;;22.55;;
19973;SDS011;10148;47.694;9.442;2022-08-19T09:33:43;33.80;;;22.75;;
19973;SDS011;10148;47.694;9.442;2022-08-19T09:36:10;36.50;;;22.75;;
19973;SDS011;10148;47.694;9.442;2022-08-19T09:38:37;38.28;;;22.67;;
19973;SDS011;10148;47.694;9.442;2022-08-19T09:41:08;35.47;;;22.13;;
19973;SDS011;10148;47.694;9.442;2022-08-19T09:43:37;36.72;;;22.95;;
19973;SDS011;10148;47.694;9.442;2022-08-19T09:46:03;31.70;;;18.90;;
19973;SDS011;10148;47.694;9.442;2022-08-19T09:48:40;28.73;;;17.77;;
19973;SDS011;10148;47.694;9.442;2022-08-19T09:53:35;26.23;;;18.10;;
19973;SDS011;10148;47.694;9.442;2022-08-19T09:56:02;26.42;;;17.13;;
19973;SDS011;10148;47.694;9.442;2022-08-19T09:58:30;25.17;;;17.05;;
19973;SDS011;10148;47.694;9.442;2022-08-19T10:00:57;29.15;;;16.80;;
19973;SDS011;10148;47.694;9.442;2022-08-19T10:03:24;23.08;;;14.10;;
19973;SDS011;10148;47.694;9.442;2022-08-19T10:05:51;23.42;;;15.20;;
19973;SDS011;10148;47.694;9.442;2022-08-19T10:08:22;26.52;;;17.75;;
19973;SDS011;10148;47.694;9.442;2022-08-19T10:10:50;27.55;;;17.88;;
19973;SDS011;10148;47.694;9.442;2022-08-19T10:13:17;29.02;;;18.55;;
19973;SDS011;10148;47.694;9.442;2022-08-19T10:15:47;25.88;;;17.80;;
19973;SDS011;10148;47.694;9.442;2022-08-19T10:18:15;30.50;;;20.38;;
19973;SDS011;10148;47.694;9.442;2022-08-19T10:20:48;33.90;;;21.02;;
19973;SDS011;10148;47.694;9.442;2022-08-19T10:23:15;32.28;;;19.33;;
19973;SDS011;10148;47.694;9.442;2022-08-19T10:25:42;32.55;;;21.00;;
19973;SDS011;10148;47.694;9.442;2022-08-19T10:28:08;26.75;;;17.25;;
19973;SDS011;10148;47.694;9.442;2022-08-19T10:30:37;28.30;;;16.60;;
19973;SDS011;10148;47.694;9.442;2022-08-19T10:33:04;23.65;;;14.40;;
19973;SDS011;10148;47.694;9.442;2022-08-19T10:35:30;26.30;;;15.27;;
19973;SDS011;10148;47.694;9.442;2022-08-19T10:37:56;25.73;;;16.98;;
19973;SDS011;10148;47.694;9.442;2022-08-19T10:40:26;31.38;;;18.95;;
19973;SDS011;10148;47.694;9.442;2022-08-19T10:42:53;30.08;;;19.50;;
19973;SDS011;10148;47.694;9.442;2022-08-19T10:45:20;30.30;;;19.65;;
19973;SDS011;10148;47.694;9.442;2022-08-19T10:47:50;37.95;;;21.63;;
19973;SDS011;10148;47.694;9.442;2022-08-19T10:50:19;34.58;;;22.77;;
19973;SDS011;10148;47.694;9.442;2022-08-19T10:53:05;34.60;;;21.08;;
19973;SDS011;10148;47.694;9.442;2022-08-19T10:55:33;35.00;;;20.55;;
19973;SDS011;10148;47.694;9.442;2022-08-19T10:58:18;34.03;;;20.30;;
19973;SDS011;10148;47.694;9.442;2022-08-19T11:00:57;31.88;;;18.83;;
19973;SDS011;10148;47.694;9.442;2022-08-19T11:03:24;34.58;;;20.20;;
19973;SDS011;10148;47.694;9.442;2022-08-19T11:05:56;33.63;;;20.20;;
19973;SDS011;10148;47.694;9.442;2022-08-19T11:08:26;34.55;;;21.15;;
19973;SDS011;10148;47.694;9.442;2022-08-19T11:10:52;35.90;;;20.60;;
19973;SDS011;10148;47.694;9.442;2022-08-19T11:13:25;34.83;;;21.33;;
19973;SDS011;10148;47.694;9.442;2022-08-19T11:15:58;33.58;;;18.67;;
19973;SDS011;10148;47.694;9.442;2022-08-19T11:18:36;32.90;;;21.25;;
19973;SDS011;10148;47.694;9.442;2022-08-19T11:21:11;33.13;;;20.52;;
19973;SDS011;10148;47.694;9.442;2022-08-19T11:23:39;32.65;;;20.15;;
19973;SDS011;10148;47.694;9.442;2022-08-19T11:26:06;31.13;;;18.40;;
19973;SDS011;10148;47.694;9.442;2022-08-19T11:28:31;29.95;;;19.35;;
19973;SDS011;10148;47.694;9.442;2022-08-19T11:30:57;28.63;;;17.92;;
19973;SDS011;10148;47.694;9.442;2022-08-19T11:33:23;26.15;;;17.25;;
19973;SDS011;10148;47.694;9.442;2022-08-19T11:35:51;120.75;;;93.70;;
19973;SDS011;10148;47.694;9.442;2022-08-19T11:38:17;41.10;;;25.80;;
19973;SDS011;10148;47.694;9.442;2022-08-19T11:40:43;29.52;;;16.88;;
19973;SDS011;10148;47.694;9.442;2022-08-19T11:43:09;26.40;;;15.63;;
19973;SDS011;10148;47.694;9.442;2022-08-19T11:45:34;24.95;;;16.67;;
19973;SDS011;10148;47.694;9.442;2022-08-19T11:48:00;24.90;;;15.02;;
19973;SDS011;10148;47.694;9.442;2022-08-19T11:50:27;19.02;;;11.38;;
19973;SDS011;10148;47.694;9.442;2022-08-19T11:52:55;26.00;;;17.05;;
19973;SDS011;10148;47.694;9.442;2022-08-19T11:55:21;24.77;;;16.45;;
19973;SDS011;10148;47.694;9.442;2022-08-19T11:57:47;23.83;;;15.95;;
19973;SDS011;10148;47.694;9.442;2022-08-19T12:00:13;22.58;;;15.80;;
19973;SDS011;10148;47.694;9.442;2022-08-19T12:02:39;22.25;;;13.32;;
19973;SDS011;10148;47.694;9.442;2022-08-19T12:05:05;24.30;;;15.27;;
19973;SDS011;10148;47.694;9.442;2022-08-19T12:07:31;24.95;;;15.38;;
19973;SDS011;10148;47.694;9.442;2022-08-19T12:09:57;25.17;;;16.38;;
19973;SDS011;10148;47.694;9.442;2022-08-19T12:12:24;21.80;;;13.13;;
19973;SDS011;10148;47.694;9.442;2022-08-19T12:14:49;19.85;;;13.75;;
19973;SDS011;10148;47.694;9.442;2022-08-19T12:17:21;24.73;;;14.38;;
19973;SDS011;10148;47.694;9.442;2022-08-19T12:19:50;24.20;;;15.55;;
19973;SDS011;10148;47.694;9.442;2022-08-19T12:22:16;22.88;;;14.10;;
19973;SDS011;10148;47.694;9.442;2022-08-19T12:24:41;23.15;;;14.30;;
19973;SDS011;10148;47.694;9.442;2022-08-19T12:27:07;21.98;;;13.45;;
19973;SDS011;10148;47.694;9.442;2022-08-19T12:29:33;21.40;;;14.05;;
19973;SDS011;10148;47.694;9.442;2022-08-19T12:31:58;19.85;;;13.32;;
19973;SDS011;10148;47.694;9.442;2022-08-19T12:34:28;19.33;;;12.70;;
19973;SDS011;10148;47.694;9.442;2022-08-19T12:36:55;21.92;;;14.40;;
19973;SDS011;10148;47.694;9.442;2022-08-19T12:39:22;25.67;;;19.75;;
19973;SDS011;10148;47.694;9.442;2022-08-19T12:41:48;28.33;;;22.23;;
19973;SDS011;10148;47.694;9.442;2022-08-19T12:44:14;21.10;;;14.15;;
19973;SDS011;10148;47.694;9.442;2022-08-19T12:46:40;20.20;;;14.50;;
19973;SDS011;10148;47.694;9.442;2022-08-19T12:49:05;20.45;;;13.77;;
19973;SDS011;10148;47.694;9.442;2022-08-19T12:51:31;20.33;;;14.35;;
19973;SDS011;10148;47.694;9.442;2022-08-19T12:53:56;22.88;;;14.38;;
19973;SDS011;10148;47.694;9.442;2022-08-19T12:56:22;19.98;;;12.95;;
19973;SDS011;10148;47.694;9.442;2022-08-19T12:58:47;19.20;;;14.32;;
19973;SDS011;10148;47.694;9.442;2022-08-19T13:01:14;20.80;;;15.23;;
19973;SDS011;10148;47.694;9.442;2022-08-19T13:03:41;21.67;;;14.65;;
19973;SDS011;10148;47.694;9.442;2022-08-19T13:06:08;16.95;;;13.70;;
19973;SDS011;10148;47.694;9.442;2022-08-19T13:08:34;19.77;;;14.02;;
19973;SDS011;10148;47.694;9.442;2022-08-19T13:11:07;19.88;;;14.35;;
19973;SDS011;10148;47.694;9.442;2022-08-19T13:13:37;19.60;;;14.07;;
19973;SDS011;10148;47.694;9.442;2022-08-19T13:16:06;19.35;;;15.23;;
19973;SDS011;10148;47.694;9.442;2022-08-19T13:18:32;22.55;;;16.10;;
19973;SDS011;10148;47.694;9.442;2022-08-19T13:21:01;23.98;;;17.35;;
19973;SDS011;10148;47.694;9.442;2022-08-19T13:23:31;21.20;;;15.05;;
19973;SDS011;10148;47.694;9.442;2022-08-19T13:25:58;24.85;;;18.35;;
19973;SDS011;10148;47.694;9.442;2022-08-19T13:28:25;24.02;;;16.73;;
19973;SDS011;10148;47.694;9.442;2022-08-19T13:30:51;26.90;;;18.05;;
19973;SDS011;10148;47.694;9.442;2022-08-19T13:33:36;28.40;;;19.77;;
19973;SDS011;10148;47.694;9.442;2022-08-19T13:36:01;25.63;;;17.20;;
19973;SDS011;10148;47.694;9.442;2022-08-19T13:38:27;31.33;;;20.30;;
19973;SDS011;10148;47.694;9.442;2022-08-19T13:40:53;27.90;;;19.85;;
19973;SDS011;10148;47.694;9.442;2022-08-19T13:43:20;27.55;;;20.05;;
19973;SDS011;10148;47.694;9.442;2022-08-19T13:45:48;31.48;;;21.65;;
19973;SDS011;10148;47.694;9.442;2022-08-19T13:48:20;31.00;;;22.23;;
19973;SDS011;10148;47.694;9.442;2022-08-19T13:50:45;32.42;;;22.40;;
19973;SDS011;10148;47.694;9.442;2022-08-19T13:53:12;29.25;;;20.40;;
19973;SDS011;10148;47.694;9.442;2022-08-19T13:55:39;30.90;;;21.10;;
19973;SDS011;10148;47.694;9.442;2022-08-19T13:58:05;30.35;;;21.48;;
19973;SDS011;10148;47.694;9.442;2022-08-19T14:00:36;30.30;;;21.23;;
19973;SDS011;10148;47.694;9.442;2022-08-19T14:03:04;27.95;;;19.25;;
19973;SDS011;10148;47.694;9.442;2022-08-19T14:05:30;34.20;;;21.08;;
19973;SDS011;10148;47.694;9.442;2022-08-19T14:07:57;32.10;;;22.17;;
19973;SDS011;10148;47.694;9.442;2022-08-19T14:10:23;31.25;;;22.60;;
19973;SDS011;10148;47.694;9.442;2022-08-19T14:12:51;32.35;;;21.67;;
19973;SDS011;10148;47.694;9.442;2022-08-19T14:15:20;28.73;;;20.98;;
19973;SDS011;10148;47.694;9.442;2022-08-19T14:17:46;28.25;;;20.50;;
19973;SDS011;10148;47.694;9.442;2022-08-19T14:20:13;28.50;;;20.83;;
19973;SDS011;10148;47.694;9.442;2022-08-19T14:22:40;28.42;;;21.05;;
19973;SDS011;10148;47.694;9.442;2022-08-19T14:25:07;28.92;;;21.55;;
19973;SDS011;10148;47.694;9.442;2022-08-19T14:27:36;30.00;;;20.10;;
19973;SDS011;10148;47.694;9.442;2022-08-19T14:30:03;27.35;;;20.77;;
19973;SDS011;10148;47.694;9.442;2022-08-19T14:32:31;27.27;;;20.35;;
19973;SDS011;10148;47.694;9.442;2022-08-19T14:34:58;27.98;;;21.17;;
19973;SDS011;10148;47.694;9.442;2022-08-19T14:37:23;29.95;;;22.35;;
19973;SDS011;10148;47.694;9.442;2022-08-19T14:39:49;28.50;;;21.27;;
19973;SDS011;10148;47.694;9.442;2022-08-19T14:42:14;29.67;;;20.80;;
19973;SDS011;10148;47.694;9.442;2022-08-19T14:44:40;28.92;;;22.40;;